Time;durP1;ratioP1;P1;durP2;ratioP2;P2;SDS_P1;SDS_P2;PMS_P1;PMS_P2;Temp;Humidity;BMP_temperature;BMP_pressure;BME280_temperature;BME280_humidity;BME280_pressure;Samples;Min_cycle;Max_cycle;Signal;HPM_P1;HPM_P2
2022/02/02 00:01:16;;;;;;;18.50;4.45;;;;;;;;;;5115409;28;20035;-66
2022/02/02 00:03:48;;;;;;;17.90;4.10;;;;;;;;;;5115399;28;20032;-64
2022/02/02 00:06:21;;;;;;;18.67;4.38;;;;;;;;;;5115445;28;20059;-65
2022/02/02 00:09:12;;;;;;;;;;;;;;;;;;5123329;27;20115;-65
2022/02/02 00:19:39;;;;;;;12.90;3.83;;;;;;;;;;5094598;28;20082;-64
2022/02/02 00:22:12;;;;;;;15.00;4.13;;;;;;;;;;5103833;28;20157;-65
2022/02/02 00:27:15;;;;;;;15.63;4.15;;;;;;;;;;5135172;27;20164;-64
2022/02/02 00:29:47;;;;;;;15.75;4.05;;;;;;;;;;5135220;27;20015;-65
2022/02/02 00:32:24;;;;;;;14.88;4.65;;;;;;;;;;5135024;27;20026;-65
2022/02/02 00:34:50;;;;;;;17.15;4.45;;;;;;;;;;5135018;27;20019;-65
2022/02/02 00:37:17;;;;;;;15.55;4.30;;;;;;;;;;5135120;27;20032;-64
2022/02/02 00:39:43;;;;;;;15.95;4.00;;;;;;;;;;5134985;27;20023;-65
2022/02/02 00:42:09;;;;;;;15.65;4.85;;;;;;;;;;5129330;27;20037;-65
2022/02/02 00:44:41;;;;;;;14.02;4.30;;;;;;;;;;5117027;27;20100;-65
2022/02/02 00:47:07;;;;;;;15.40;4.03;;;;;;;;;;5114308;28;20024;-64
2022/02/02 00:49:33;;;;;;;17.95;4.18;;;;;;;;;;5114462;28;20039;-64
2022/02/02 00:51:59;;;;;;;16.70;4.60;;;;;;;;;;5114250;28;20020;-64
2022/02/02 00:54:26;;;;;;;15.45;4.10;;;;;;;;;;5113943;28;20482;-64
2022/02/02 00:56:53;;;;;;;13.18;3.78;;;;;;;;;;5114159;28;20542;-65
2022/02/02 00:59:21;;;;;;;13.25;3.88;;;;;;;;;;5120704;27;20035;-65
2022/02/02 01:01:47;;;;;;;14.55;4.05;;;;;;;;;;5115009;27;20091;-65
2022/02/02 01:04:13;;;;;;;19.73;4.60;;;;;;;;;;5113956;28;20385;-64
2022/02/02 01:06:44;;;;;;;15.93;4.05;;;;;;;;;;5113853;28;20111;-64
2022/02/02 01:12:32;;;;;;;15.45;3.97;;;;;;;;;;5097024;28;20540;-65
2022/02/02 01:28:31;;;;;;;15.60;4.10;;;;;;;;;;5095634;28;20032;-65
2022/02/02 01:30:59;;;;;;;17.83;4.13;;;;;;;;;;5113231;28;20016;-65
2022/02/02 01:33:25;;;;;;;16.23;4.35;;;;;;;;;;5112846;28;20103;-65
2022/02/02 01:35:52;;;;;;;14.23;4.03;;;;;;;;;;5113511;28;20020;-65
2022/02/02 01:38:19;;;;;;;14.18;4.53;;;;;;;;;;5113523;28;20035;-65
2022/02/02 01:40:50;;;;;;;16.05;4.63;;;;;;;;;;5113128;28;20153;-65
2022/02/02 01:43:22;;;;;;;15.82;4.10;;;;;;;;;;5112424;28;20359;-65
2022/02/02 01:45:56;;;;;;;18.02;4.30;;;;;;;;;;5130088;27;20028;-63
2022/02/02 01:48:34;;;;;;;20.30;4.20;;;;;;;;;;5112874;28;20031;-65
2022/02/02 01:56:06;;;;;;;40.33;5.03;;;;;;;;;;5113041;28;20051;-65
2022/02/02 01:58:52;;;;;;;23.15;5.05;;;;;;;;;;5112425;28;20061;-64
2022/02/02 02:01:19;;;;;;;20.88;4.13;;;;;;;;;;5117963;27;20012;-64
2022/02/02 02:03:45;;;;;;;20.70;4.53;;;;;;;;;;5113003;28;20061;-65
2022/02/02 02:06:11;;;;;;;18.10;3.55;;;;;;;;;;5094699;28;20473;-64
2022/02/02 02:08:40;;;;;;;21.15;4.72;;;;;;;;;;5113177;28;20502;-65
2022/02/02 02:11:09;;;;;;;20.65;4.50;;;;;;;;;;5112651;28;20017;-65
2022/02/02 02:16:11;;;;;;;17.02;4.18;;;;;;;;;;5099756;28;20075;-64
2022/02/02 02:18:37;;;;;;;18.48;4.38;;;;;;;;;;5094181;28;20055;-65
2022/02/02 02:21:12;;;;;;;18.70;4.13;;;;;;;;;;5091265;28;20011;-65
2022/02/02 02:23:38;;;;;;;14.80;4.13;;;;;;;;;;5111932;28;20051;-65
2022/02/02 02:26:08;;;;;;;26.73;4.70;;;;;;;;;;5112152;28;20020;-65
2022/02/02 02:31:09;;;;;;;16.20;4.32;;;;;;;;;;5112982;28;20028;-65
2022/02/02 02:36:35;;;;;;;21.75;4.00;;;;;;;;;;5112740;28;20111;-66
2022/02/02 02:58:10;;;;;;;14.93;4.05;;;;;;;;;;5116514;28;20054;-65
2022/02/02 03:01:14;;;;;;;13.23;4.07;;;;;;;;;;5124630;27;20026;-66
2022/02/02 03:31:21;;;;;;;12.70;3.85;;;;;;;;;;5136364;27;20084;-65
2022/02/02 04:05:44;;;;;;;14.48;4.00;;;;;;;;;;5136096;27;20029;-65
2022/02/02 04:10:52;;;;;;;15.68;4.18;;;;;;;;;;5126423;27;20039;-66
2022/02/02 04:13:35;;;;;;;17.92;4.40;;;;;;;;;;5114106;28;20047;-66
2022/02/02 04:37:52;;;;;;;12.20;3.75;;;;;;;;;;5135105;27;20069;-65
2022/02/02 04:51:27;;;;;;;13.32;3.72;;;;;;;;;;5135141;27;20367;-65
2022/02/02 05:07:03;;;;;;;12.93;3.67;;;;;;;;;;5134443;27;20055;-65
2022/02/02 05:09:45;;;;;;;17.73;4.35;;;;;;;;;;5134469;27;20054;-65
2022/02/02 05:15:40;;;;;;;13.18;3.15;;;;;;;;;;5093414;28;20024;-65
2022/02/02 05:20:49;;;;;;;16.80;4.22;;;;;;;;;;5093390;28;20158;-66
2022/02/02 05:50:20;;;;;;;11.70;3.38;;;;;;;;;;5099690;28;20096;-65
2022/02/02 05:52:46;;;;;;;15.03;3.57;;;;;;;;;;5113105;28;20030;-65
2022/02/02 05:55:13;;;;;;;11.82;3.38;;;;;;;;;;5112926;28;20051;-64
2022/02/02 05:57:45;;;;;;;10.93;3.33;;;;;;;;;;5113055;28;20050;-64
2022/02/02 06:00:12;;;;;;;12.48;3.75;;;;;;;;;;5113290;28;20015;-65
2022/02/02 06:02:38;;;;;;;12.07;3.50;;;;;;;;;;5112658;28;20051;-66
2022/02/02 06:05:07;;;;;;;12.95;3.67;;;;;;;;;;5112817;28;20449;-65
2022/02/02 06:07:34;;;;;;;14.93;3.97;;;;;;;;;;5112124;28;20035;-65
2022/02/02 06:10:01;;;;;;;17.70;3.65;;;;;;;;;;5123817;27;20050;-65
2022/02/02 06:12:28;;;;;;;12.88;3.60;;;;;;;;;;5112852;28;20027;-65
2022/02/02 06:14:54;;;;;;;16.30;3.60;;;;;;;;;;5112996;28;20035;-65
2022/02/02 06:17:21;;;;;;;16.40;3.35;;;;;;;;;;5091199;28;20118;-64
2022/02/02 06:19:47;;;;;;;10.48;3.15;;;;;;;;;;5112611;28;20020;-65
2022/02/02 06:22:13;;;;;;;13.10;3.47;;;;;;;;;;5112179;28;20024;-63
2022/02/02 06:25:02;;;;;;;21.50;3.53;;;;;;;;;;5093663;28;20473;-64
2022/02/02 06:27:28;;;;;;;21.42;3.88;;;;;;;;;;5109397;28;20394;-63
2022/02/02 06:30:01;;;;;;;14.07;3.78;;;;;;;;;;5112076;28;20020;-64
2022/02/02 06:32:28;;;;;;;23.67;4.80;;;;;;;;;;5081095;28;20129;-68
2022/02/02 06:34:59;;;;;;;31.85;4.57;;;;;;;;;;5100770;28;20043;-66
2022/02/02 06:37:25;;;;;;;30.27;4.40;;;;;;;;;;5112419;28;20043;-65
2022/02/02 06:39:52;;;;;;;23.50;4.53;;;;;;;;;;5112240;28;20121;-64
2022/02/02 06:42:18;;;;;;;21.58;4.35;;;;;;;;;;5112283;28;20062;-64
2022/02/02 06:44:45;;;;;;;21.27;4.47;;;;;;;;;;5112493;28;20106;-63
2022/02/02 06:47:11;;;;;;;19.60;4.60;;;;;;;;;;5111600;28;20391;-66
2022/02/02 06:49:39;;;;;;;24.58;4.40;;;;;;;;;;5112353;28;20585;-66
2022/02/02 06:52:17;;;;;;;19.10;4.45;;;;;;;;;;5112467;28;20027;-67
2022/02/02 06:54:53;;;;;;;22.65;4.47;;;;;;;;;;5112559;27;20062;-65
2022/02/02 06:57:23;;;;;;;26.75;4.85;;;;;;;;;;5114960;28;20096;-64
2022/02/02 07:00:22;;;;;;;35.28;5.03;;;;;;;;;;5128213;28;20012;-64
2022/02/02 07:03:02;;;;;;;20.77;4.60;;;;;;;;;;5112152;28;20111;-64
2022/02/02 07:11:29;;;;;;;22.85;4.20;;;;;;;;;;5069105;28;20036;-64
2022/02/02 07:14:17;;;;;;;24.33;4.50;;;;;;;;;;5101418;28;20035;-64
2022/02/02 07:19:25;;;;;;;19.08;4.50;;;;;;;;;;5112382;28;20036;-64
2022/02/02 07:22:13;;;;;;;19.67;4.20;;;;;;;;;;5112456;28;20020;-65
2022/02/02 07:32:26;;;;;;;18.15;4.30;;;;;;;;;;5112645;28;20112;-64
2022/02/02 07:37:30;;;;;;;23.00;5.10;;;;;;;;;;5114806;28;20040;-64
2022/02/02 07:39:58;;;;;;;18.45;3.92;;;;;;;;;;5115808;28;20032;-64
2022/02/02 07:42:25;;;;;;;29.83;5.60;;;;;;;;;;5115056;28;20028;-64
2022/02/02 07:44:53;;;;;;;18.80;4.72;;;;;;;;;;5097202;28;20032;-65
2022/02/02 07:47:20;;;;;;;21.05;4.30;;;;;;;;;;5114718;28;20036;-64
2022/02/02 07:49:49;;;;;;;18.83;4.38;;;;;;;;;;5114983;28;20027;-63
2022/02/02 07:52:19;;;;;;;14.50;4.22;;;;;;;;;;5115093;28;20103;-64
2022/02/02 07:54:48;;;;;;;18.85;3.97;;;;;;;;;;5114229;28;20028;-64
2022/02/02 07:57:18;;;;;;;13.38;3.90;;;;;;;;;;5112746;27;20031;-64
2022/02/02 07:59:59;;;;;;;21.00;4.18;;;;;;;;;;5116683;27;20015;-64
2022/02/02 08:02:45;;;;;;;19.45;3.95;;;;;;;;;;5098626;27;20173;-64
2022/02/02 08:05:13;;;;;;;16.65;3.60;;;;;;;;;;5096723;28;20015;-64
2022/02/02 08:07:45;;;;;;;19.00;4.30;;;;;;;;;;5116953;27;20027;-62
2022/02/02 08:10:21;;;;;;;18.58;4.20;;;;;;;;;;5108838;28;20022;-62
2022/02/02 08:12:50;;;;;;;17.85;3.70;;;;;;;;;;5114498;28;20036;-62
2022/02/02 08:15:19;;;;;;;17.23;3.88;;;;;;;;;;5117087;27;20030;-61
2022/02/02 08:17:47;;;;;;;16.08;3.70;;;;;;;;;;5096236;28;20040;-62
2022/02/02 08:20:13;;;;;;;15.48;3.47;;;;;;;;;;5115003;28;20028;-61
2022/02/02 08:22:40;;;;;;;19.38;4.00;;;;;;;;;;5114486;28;20023;-61
2022/02/02 08:25:10;;;;;;;15.80;3.75;;;;;;;;;;5092788;28;20031;-62
2022/02/02 08:27:41;;;;;;;12.40;3.35;;;;;;;;;;5114431;28;20074;-61
2022/02/02 08:30:11;;;;;;;11.57;3.28;;;;;;;;;;5106324;28;20090;-62
2022/02/02 08:32:50;;;;;;;13.77;3.20;;;;;;;;;;5073709;28;20025;-61
2022/02/02 08:35:16;;;;;;;14.77;3.58;;;;;;;;;;5094046;28;20028;-62
2022/02/02 08:37:46;;;;;;;18.42;3.55;;;;;;;;;;5094188;28;20035;-61
2022/02/02 08:40:24;;;;;;;13.40;2.90;;;;;;;;;;5094031;28;20012;-61
2022/02/02 08:42:51;;;;;;;15.95;3.17;;;;;;;;;;5106175;28;20109;-62
2022/02/02 08:45:22;;;;;;;14.80;3.42;;;;;;;;;;5114312;28;20066;-62
2022/02/02 08:47:56;;;;;;;13.50;2.92;;;;;;;;;;5114333;28;20051;-61
2022/02/02 08:53:16;;;;;;;14.20;3.00;;;;;;;;;;5114181;28;20516;-62
2022/02/02 08:56:09;;;;;;;9.65;2.83;;;;;;;;;;5113661;28;20043;-62
2022/02/02 08:58:43;;;;;;;13.88;3.15;;;;;;;;;;5102453;28;20039;-62
2022/02/02 09:01:14;;;;;;;11.15;3.30;;;;;;;;;;5094827;28;20562;-62
2022/02/02 09:06:25;;;;;;;13.65;2.67;;;;;;;;;;5114100;28;20089;-62
2022/02/02 09:09:00;;;;;;;9.88;2.80;;;;;;;;;;5098634;27;20023;-62
2022/02/02 09:23:24;;;;;;;10.23;2.63;;;;;;;;;;5093206;28;20150;-65
2022/02/02 09:25:14;;;;;;;12.40;2.65;;;;;;;;;;5093037;28;20028;-64
2022/02/02 09:35:55;;;;;;;9.65;2.45;;;;;;;;;;5106691;28;20054;-65
2022/02/02 09:38:21;;;;;;;14.23;2.78;;;;;;;;;;5113508;28;20093;-65
2022/02/02 09:43:21;;;;;;;10.05;2.33;;;;;;;;;;5113257;28;20042;-65
2022/02/02 09:45:52;;;;;;;9.85;2.30;;;;;;;;;;5122498;27;20092;-66
2022/02/02 09:48:44;;;;;;;11.10;2.45;;;;;;;;;;5099384;28;20024;-65
2022/02/02 09:51:14;;;;;;;13.95;2.75;;;;;;;;;;5113063;28;20027;-65
2022/02/02 09:53:46;;;;;;;11.13;2.70;;;;;;;;;;5112781;28;20101;-65
2022/02/02 09:56:39;;;;;;;7.88;2.30;;;;;;;;;;5094016;28;20047;-64
2022/02/02 10:15:28;;;;;;;11.05;2.17;;;;;;;;;;5092460;28;20028;-65
2022/02/02 10:17:57;;;;;;;8.82;2.63;;;;;;;;;;5092428;28;20025;-65
2022/02/02 10:20:24;;;;;;;7.85;2.10;;;;;;;;;;5092273;28;20020;-65
2022/02/02 10:22:59;;;;;;;6.63;1.90;;;;;;;;;;5091810;28;20107;-65
2022/02/02 10:25:29;;;;;;;8.80;1.98;;;;;;;;;;5073822;28;20032;-65
2022/02/02 10:28:11;;;;;;;10.10;2.45;;;;;;;;;;5074093;28;20263;-65
2022/02/02 10:30:40;;;;;;;14.18;2.30;;;;;;;;;;5126993;28;20050;-66
2022/02/02 10:33:06;;;;;;;8.25;1.70;;;;;;;;;;5096144;28;20134;-65
2022/02/02 10:35:33;;;;;;;8.02;2.15;;;;;;;;;;5092074;28;20051;-65
2022/02/02 10:38:01;;;;;;;9.15;2.40;;;;;;;;;;5100286;28;20364;-65
2022/02/02 10:40:33;;;;;;;9.63;1.90;;;;;;;;;;5112315;28;20404;-65
2022/02/02 10:42:59;;;;;;;7.03;2.05;;;;;;;;;;5112523;28;20455;-65
2022/02/02 10:45:27;;;;;;;6.82;1.83;;;;;;;;;;5112594;28;20350;-65
2022/02/02 10:48:13;;;;;;;6.68;2.00;;;;;;;;;;5112449;28;20428;-66
2022/02/02 10:50:49;;;;;;;8.02;1.92;;;;;;;;;;5112393;28;20023;-65
2022/02/02 10:56:01;;;;;;;7.50;1.92;;;;;;;;;;5112340;28;20044;-65
2022/02/02 11:08:52;;;;;;;6.65;1.77;;;;;;;;;;5095999;28;20058;-65
2022/02/02 11:11:18;;;;;;;6.53;1.73;;;;;;;;;;5108481;28;20027;-65
2022/02/02 11:13:45;;;;;;;7.70;2.05;;;;;;;;;;5092218;28;20473;-65
2022/02/02 11:16:14;;;;;;;7.13;1.92;;;;;;;;;;5097219;28;20036;-65
2022/02/02 11:18:43;;;;;;;9.80;2.25;;;;;;;;;;5095196;28;20036;-64
2022/02/02 11:21:10;;;;;;;6.20;1.73;;;;;;;;;;5095125;28;20671;-65
2022/02/02 11:23:43;;;;;;;6.20;1.60;;;;;;;;;;5100653;28;20058;-65
2022/02/02 11:26:09;;;;;;;5.35;1.67;;;;;;;;;;5115922;28;20039;-67
2022/02/02 11:28:36;;;;;;;6.75;2.15;;;;;;;;;;5115815;28;20059;-66
2022/02/02 11:31:03;;;;;;;6.80;1.75;;;;;;;;;;5108875;28;20064;-65
2022/02/02 11:33:29;;;;;;;5.88;1.80;;;;;;;;;;5115404;28;20038;-66
2022/02/02 11:35:58;;;;;;;6.13;1.70;;;;;;;;;;5076521;28;20020;-65
2022/02/02 11:38:31;;;;;;;7.50;1.73;;;;;;;;;;5094933;28;20036;-65
2022/02/02 11:41:15;;;;;;;6.68;1.75;;;;;;;;;;5111603;27;20454;-65
2022/02/02 11:46:38;;;;;;;9.25;2.00;;;;;;;;;;5115713;28;20588;-65
2022/02/02 11:49:08;;;;;;;5.88;1.55;;;;;;;;;;5115844;28;20027;-64
2022/02/02 11:51:41;;;;;;;6.70;1.70;;;;;;;;;;5115370;28;20020;-65
2022/02/02 11:54:08;;;;;;;4.78;1.45;;;;;;;;;;5115588;28;20028;-65
2022/02/02 11:56:53;;;;;;;9.23;1.85;;;;;;;;;;5114936;28;20055;-64
2022/02/02 12:02:31;;;;;;;;;;;;;;;;;;5109995;28;20085;-65
2022/02/02 12:07:46;;;;;;;5.97;1.48;;;;;;;;;;5094056;28;20043;-66
2022/02/02 12:10:17;;;;;;;5.63;1.30;;;;;;;;;;5115577;27;20019;-66
2022/02/02 12:27:48;;;;;;;6.47;1.77;;;;;;;;;;5135677;27;20034;-66
2022/02/02 12:45:02;;;;;;;4.65;1.27;;;;;;;;;;5113015;28;20077;-65
2022/02/02 12:57:08;;;;;;;3.80;1.27;;;;;;;;;;5112886;28;20051;-65
2022/02/02 13:02:17;;;;;;;8.15;1.67;;;;;;;;;;5113616;28;20078;-65
2022/02/02 13:04:44;;;;;;;15.02;1.20;;;;;;;;;;5114227;28;20020;-65
2022/02/02 13:07:12;;;;;;;5.35;1.30;;;;;;;;;;5114031;28;20034;-64
2022/02/02 13:09:38;;;;;;;5.45;1.42;;;;;;;;;;5122977;27;20411;-65
2022/02/02 13:12:41;;;;;;;6.88;1.40;;;;;;;;;;5089028;28;20107;-65
2022/02/02 13:20:41;;;;;;;3.92;1.38;;;;;;;;;;5113597;28;20057;-64
2022/02/02 13:23:32;;;;;;;5.97;1.30;;;;;;;;;;5113442;28;20027;-65
2022/02/02 13:26:05;;;;;;;4.78;1.10;;;;;;;;;;5113425;28;20090;-66
2022/02/02 13:31:37;;;;;;;8.40;1.60;;;;;;;;;;5106032;28;20480;-64
2022/02/02 13:34:49;;;;;;;5.80;1.40;;;;;;;;;;5113259;28;20027;-65
2022/02/02 13:37:54;;;;;;;7.05;1.67;;;;;;;;;;5084441;28;20042;-66
2022/02/02 13:56:56;;;;;;;5.05;1.60;;;;;;;;;;5112414;28;20050;-64
2022/02/02 14:09:17;;;;;;;3.78;1.30;;;;;;;;;;5112711;28;20042;-64
2022/02/02 14:33:15;;;;;;;7.00;1.42;;;;;;;;;;5096688;28;20395;-63
2022/02/02 14:35:44;;;;;;;3.90;1.00;;;;;;;;;;5104592;28;20448;-64
2022/02/02 14:38:11;;;;;;;3.40;1.20;;;;;;;;;;5094055;28;20028;-64
2022/02/02 14:43:15;;;;;;;3.88;1.23;;;;;;;;;;5103760;28;20031;-63
2022/02/02 14:45:47;;;;;;;5.13;1.10;;;;;;;;;;5103444;28;20016;-64
2022/02/02 14:48:25;;;;;;;4.65;1.38;;;;;;;;;;5085609;28;20068;-65
2022/02/02 14:53:45;;;;;;;3.95;1.13;;;;;;;;;;5119010;27;20076;-64
2022/02/02 15:16:52;;;;;;;5.15;1.20;;;;;;;;;;5107666;28;20030;-64
2022/02/02 15:29:58;;;;;;;5.35;1.00;;;;;;;;;;5030165;28;20135;-64
2022/02/02 15:31:57;;;;;;;4.43;1.10;;;;;;;;;;5083506;28;20039;-64
2022/02/02 15:34:33;;;;;;;4.72;1.15;;;;;;;;;;5115292;28;20077;-64
2022/02/02 15:39:30;;;;;;;3.08;1.08;;;;;;;;;;5111387;28;20475;-65
2022/02/02 15:42:19;;;;;;;3.72;1.15;;;;;;;;;;5094643;28;20376;-64
2022/02/02 16:03:28;;;;;;;5.82;1.20;;;;;;;;;;5102217;28;20109;-64
2022/02/02 16:06:00;;;;;;;5.00;1.25;;;;;;;;;;5109409;28;20023;-64
2022/02/02 16:08:28;;;;;;;3.53;1.27;;;;;;;;;;5113453;28;20099;-64
2022/02/02 16:17:01;;;;;;;3.95;1.13;;;;;;;;;;5118637;27;20035;-64
2022/02/02 16:32:47;;;;;;;3.65;1.10;;;;;;;;;;5108749;28;20532;-65
2022/02/02 16:35:34;;;;;;;2.47;1.00;;;;;;;;;;5092880;28;20035;-65
2022/02/02 16:38:01;;;;;;;2.38;0.93;;;;;;;;;;5105290;27;20051;-65
2022/02/02 16:40:32;;;;;;;3.47;1.00;;;;;;;;;;5127181;27;20031;-65
2022/02/02 16:43:13;;;;;;;5.03;0.95;;;;;;;;;;5112331;28;20031;-64
2022/02/02 16:45:39;;;;;;;4.88;1.10;;;;;;;;;;5104238;28;20016;-65
2022/02/02 16:48:06;;;;;;;4.82;1.20;;;;;;;;;;5091941;28;20020;-64
2022/02/02 16:50:36;;;;;;;5.72;1.20;;;;;;;;;;5073901;28;20168;-64
2022/02/02 16:53:08;;;;;;;3.92;1.00;;;;;;;;;;5105510;28;20016;-64
2022/02/02 17:28:57;;;;;;;19.67;7.40;;;;;;;;;;5120508;27;20023;-66
2022/02/02 17:30:46;;;;;;;24.08;8.80;;;;;;;;;;5110754;28;20038;-64
2022/02/02 17:33:18;;;;;;;30.17;10.18;;;;;;;;;;5110746;28;20073;-65
2022/02/02 17:38:23;;;;;;;34.47;11.27;;;;;;;;;;5125097;27;20424;-64
2022/02/02 17:41:02;;;;;;;39.50;12.55;;;;;;;;;;5083206;28;20024;-66
2022/02/02 18:21:11;;;;;;;32.97;8.10;;;;;;;;;;5090937;28;20039;-65
2022/02/02 18:26:18;;;;;;;26.65;7.85;;;;;;;;;;5090293;28;20148;-65
2022/02/02 18:34:09;;;;;;;19.17;6.97;;;;;;;;;;5089487;28;20105;-68
2022/02/02 18:47:35;;;;;;;70.95;6.43;;;;;;;;;;5095898;28;20077;-62
2022/02/02 18:55:14;;;;;;;39.05;4.70;;;;;;;;;;5069539;28;20025;-62
2022/02/02 19:37:47;;;;;;;19.58;2.78;;;;;;;;;;5092127;28;20067;-66
2022/02/02 19:56:27;;;;;;;17.77;2.63;;;;;;;;;;5100808;28;20067;-64
2022/02/02 20:01:56;;;;;;;7.43;2.05;;;;;;;;;;5109776;28;20073;-60
2022/02/02 20:04:39;;;;;;;14.57;2.70;;;;;;;;;;5109123;27;20482;-61
2022/02/02 20:07:23;;;;;;;7.03;2.10;;;;;;;;;;5112942;28;20015;-62
2022/02/02 20:09:59;;;;;;;13.38;2.03;;;;;;;;;;5110883;28;20490;-70
2022/02/02 20:12:29;;;;;;;13.18;1.80;;;;;;;;;;5109952;28;20047;-63
2022/02/02 20:14:56;;;;;;;7.55;1.60;;;;;;;;;;5112332;28;20020;-66
2022/02/02 20:17:24;;;;;;;14.43;1.95;;;;;;;;;;5112850;28;20043;-66
2022/02/02 20:19:53;;;;;;;6.93;2.13;;;;;;;;;;5112978;28;20020;-63
2022/02/02 20:22:22;;;;;;;9.20;1.88;;;;;;;;;;5113216;28;20036;-63
2022/02/02 20:25:07;;;;;;;7.63;1.85;;;;;;;;;;5113104;28;20024;-67
2022/02/02 20:27:34;;;;;;;8.25;1.88;;;;;;;;;;5094673;28;20450;-62
2022/02/02 20:30:01;;;;;;;8.65;1.65;;;;;;;;;;5112826;28;20016;-62
2022/02/02 20:32:27;;;;;;;5.50;1.55;;;;;;;;;;5120254;27;20031;-62
2022/02/02 20:34:53;;;;;;;3.88;1.42;;;;;;;;;;5133479;27;20026;-62
2022/02/02 20:37:20;;;;;;;8.13;2.00;;;;;;;;;;5133354;27;20050;-66
2022/02/02 20:39:53;;;;;;;8.10;1.63;;;;;;;;;;5123139;27;20433;-61
2022/02/02 20:42:29;;;;;;;4.95;1.63;;;;;;;;;;5094484;28;20015;-67
2022/02/02 20:45:10;;;;;;;6.03;1.70;;;;;;;;;;5094722;28;20047;-61
2022/02/02 21:04:21;;;;;;;6.13;1.63;;;;;;;;;;5111680;28;20034;-70
2022/02/02 21:14:57;;;;;;;7.65;1.35;;;;;;;;;;5111510;28;20107;-60
2022/02/02 21:17:26;;;;;;;8.70;1.20;;;;;;;;;;5093913;28;20035;-69
2022/02/02 21:19:58;;;;;;;4.63;1.40;;;;;;;;;;5112100;28;20056;-69
2022/02/02 21:22:26;;;;;;;6.47;1.42;;;;;;;;;;5112200;28;20043;-60
2022/02/02 21:25:09;;;;;;;6.00;1.40;;;;;;;;;;5103577;28;20472;-70
2022/02/02 21:27:40;;;;;;;7.20;1.40;;;;;;;;;;5091486;28;20024;-69
2022/02/02 21:30:09;;;;;;;6.00;1.52;;;;;;;;;;5091646;28;20020;-68
2022/02/02 21:32:36;;;;;;;3.20;1.20;;;;;;;;;;5090884;28;20172;-62
2022/02/02 21:35:07;;;;;;;10.02;1.20;;;;;;;;;;5115735;27;20031;-65
2022/02/02 21:37:35;;;;;;;5.25;1.27;;;;;;;;;;5132134;27;20027;-61
2022/02/02 21:40:16;;;;;;;3.60;1.17;;;;;;;;;;5120620;27;20016;-66
2022/02/02 21:42:43;;;;;;;5.13;1.23;;;;;;;;;;5093281;28;20058;-68
2022/02/02 21:45:10;;;;;;;10.25;1.15;;;;;;;;;;5093477;28;20019;-62
2022/02/02 21:47:36;;;;;;;3.83;1.00;;;;;;;;;;5092858;28;20019;-69
2022/02/02 21:50:07;;;;;;;4.20;1.55;;;;;;;;;;5111556;28;20059;-63
2022/02/02 21:52:33;;;;;;;2.70;1.20;;;;;;;;;;5110822;28;20510;-62
2022/02/02 21:54:59;;;;;;;3.53;1.13;;;;;;;;;;5111541;28;20031;-65
2022/02/02 21:57:25;;;;;;;3.95;1.00;;;;;;;;;;5111346;28;20112;-60
2022/02/02 21:59:51;;;;;;;5.43;0.95;;;;;;;;;;5111527;28;20467;-64
2022/02/02 22:02:17;;;;;;;3.65;1.10;;;;;;;;;;5117823;27;20106;-70
2022/02/02 22:04:43;;;;;;;8.90;1.30;;;;;;;;;;5094381;28;20123;-70
2022/02/02 22:07:09;;;;;;;6.00;1.20;;;;;;;;;;5111431;28;20031;-70
2022/02/02 22:09:35;;;;;;;5.90;1.05;;;;;;;;;;5111074;28;20019;-61
2022/02/02 22:12:01;;;;;;;3.75;1.27;;;;;;;;;;5092844;28;20084;-65
2022/02/02 22:14:27;;;;;;;4.93;1.05;;;;;;;;;;5110859;28;20094;-67
2022/02/02 22:16:56;;;;;;;2.97;0.90;;;;;;;;;;5111212;28;20051;-66
2022/02/02 22:19:22;;;;;;;3.50;0.82;;;;;;;;;;5110223;28;20031;-62
2022/02/02 22:21:48;;;;;;;5.95;0.80;;;;;;;;;;5103544;28;20054;-62
2022/02/02 22:24:16;;;;;;;3.38;1.13;;;;;;;;;;5131718;27;20050;-64
2022/02/02 22:26:42;;;;;;;4.70;1.00;;;;;;;;;;5131738;27;20027;-61
2022/02/02 22:29:08;;;;;;;2.15;0.85;;;;;;;;;;5131738;27;20031;-62
2022/02/02 22:31:34;;;;;;;2.95;0.80;;;;;;;;;;5131714;28;20102;-67
2022/02/02 22:34:00;;;;;;;3.83;0.90;;;;;;;;;;5131858;28;20023;-67
2022/02/02 22:36:27;;;;;;;3.33;0.80;;;;;;;;;;5131799;28;20023;-64
2022/02/02 22:38:53;;;;;;;1.50;0.65;;;;;;;;;;5117590;28;20031;-63
2022/02/02 22:41:19;;;;;;;3.45;1.00;;;;;;;;;;5090355;28;20375;-64
2022/02/02 22:43:48;;;;;;;1.30;0.80;;;;;;;;;;5091150;28;20180;-67
2022/02/02 22:46:14;;;;;;;4.45;0.90;;;;;;;;;;5090786;28;20159;-67
2022/02/02 22:48:42;;;;;;;4.60;0.95;;;;;;;;;;5090941;28;20020;-67
2022/02/02 22:51:09;;;;;;;6.22;0.90;;;;;;;;;;5103977;28;20100;-62
2022/02/02 22:53:35;;;;;;;1.75;0.70;;;;;;;;;;5092225;28;21040;-68
2022/02/02 22:56:01;;;;;;;7.00;0.90;;;;;;;;;;5110628;28;20051;-61
2022/02/02 22:58:27;;;;;;;3.33;0.77;;;;;;;;;;5110573;28;20036;-61
2022/02/02 23:00:53;;;;;;;4.43;0.68;;;;;;;;;;5110695;28;20141;-61
2022/02/02 23:03:22;;;;;;;3.50;0.80;;;;;;;;;;5113820;28;20023;-69
2022/02/02 23:05:54;;;;;;;11.38;0.85;;;;;;;;;;5114719;28;20031;-63
2022/02/02 23:08:22;;;;;;;2.15;0.88;;;;;;;;;;5118130;27;20019;-64
2022/02/02 23:10:48;;;;;;;9.77;1.00;;;;;;;;;;5114909;27;20073;-62
2022/02/02 23:13:15;;;;;;;1.50;0.73;;;;;;;;;;5113646;28;20027;-65
2022/02/02 23:15:50;;;;;;;3.58;0.80;;;;;;;;;;5114572;28;20024;-62
2022/02/02 23:18:19;;;;;;;4.78;0.73;;;;;;;;;;5095897;28;20044;-65
2022/02/02 23:20:49;;;;;;;4.35;0.80;;;;;;;;;;5114337;28;20746;-62
2022/02/02 23:23:17;;;;;;;2.92;0.90;;;;;;;;;;5113243;28;20759;-69
2022/02/02 23:25:43;;;;;;;3.83;0.65;;;;;;;;;;5103680;27;20023;-62
2022/02/02 23:28:12;;;;;;;3.20;0.70;;;;;;;;;;5114331;28;20107;-61
2022/02/02 23:30:39;;;;;;;1.98;0.57;;;;;;;;;;5113925;28;20020;-62
2022/02/02 23:33:06;;;;;;;1.08;0.70;;;;;;;;;;5113950;28;20066;-61
2022/02/02 23:35:32;;;;;;;1.60;0.65;;;;;;;;;;5095910;28;20031;-64
2022/02/02 23:37:58;;;;;;;2.47;0.70;;;;;;;;;;5113990;28;20035;-61
2022/02/02 23:40:25;;;;;;;1.73;0.70;;;;;;;;;;5099005;28;20364;-62
2022/02/02 23:42:51;;;;;;;4.75;0.70;;;;;;;;;;5093750;28;20089;-64
2022/02/02 23:45:22;;;;;;;4.22;1.00;;;;;;;;;;5100509;28;20019;-63
2022/02/02 23:47:49;;;;;;;0.95;0.50;;;;;;;;;;5114173;28;20030;-66
2022/02/02 23:50:17;;;;;;;1.55;0.70;;;;;;;;;;5113554;28;20550;-65
2022/02/02 23:52:50;;;;;;;2.28;0.65;;;;;;;;;;5113565;28;20432;-63
2022/02/02 23:55:23;;;;;;;2.42;0.60;;;;;;;;;;5113439;28;20048;-65
2022/02/02 23:58:01;;;;;;;1.98;0.73;;;;;;;;;;5114999;27;20043;-62
